Time;durP1;ratioP1;P1;durP2;ratioP2;P2;SDS_P1;SDS_P2;PMS_P1;PMS_P2;Temp;Humidity;BMP_temperature;BMP_pressure;BME280_temperature;BME280_humidity;BME280_pressure;Samples;Min_cycle;Max_cycle;Signal;HPM_P1;HPM_P2
2023/01/20 00:00:11;;;;;;;61.90;32.88;;;;;;;0.14;100.00;100860.03;1040717;28;20793;-78
2023/01/20 00:00:43;;;;;;;63.72;34.95;;;;;;;0.17;100.00;100861.53;1037797;28;20297;-78
2023/01/20 00:01:15;;;;;;;57.70;35.75;;;;;;;0.20;100.00;100867.28;1039237;28;20821;-78
2023/01/20 00:01:47;;;;;;;56.03;34.78;;;;;;;0.22;100.00;100862.72;1036325;28;20813;-78
2023/01/20 00:02:18;;;;;;;53.45;33.90;;;;;;;0.12;100.00;100866.38;1035875;28;20296;-78
2023/01/20 00:02:50;;;;;;;51.90;31.88;;;;;;;0.12;100.00;100869.00;1035491;28;20387;-78
2023/01/20 00:03:22;;;;;;;52.67;32.97;;;;;;;0.17;100.00;100864.13;1035966;28;20849;-78
2023/01/20 00:03:54;;;;;;;52.85;33.25;;;;;;;0.17;100.00;100869.38;1040060;28;20295;-78
2023/01/20 00:04:26;;;;;;;60.80;35.58;;;;;;;0.12;100.00;100871.63;1039887;28;20434;-78
2023/01/20 00:04:57;;;;;;;64.22;36.22;;;;;;;0.10;100.00;100877.00;1043231;28;20302;-78
2023/01/20 00:05:29;;;;;;;50.67;35.15;;;;;;;0.17;100.00;100870.19;1039798;28;20315;-78
2023/01/20 00:06:01;;;;;;;51.92;31.50;;;;;;;0.12;100.00;100869.00;1035645;28;20308;-78
2023/01/20 00:06:33;;;;;;;52.95;32.33;;;;;;;0.11;100.00;100876.03;1041775;28;20319;-78
2023/01/20 00:07:07;;;;;;;54.63;33.85;;;;;;;0.13;100.00;100868.03;1041923;28;20859;-78
2023/01/20 00:07:39;;;;;;;54.65;33.40;;;;;;;0.16;100.00;100873.78;1047524;28;20307;-78
2023/01/20 00:08:10;;;;;;;53.58;34.05;;;;;;;0.12;100.00;100875.06;1047013;28;20291;-78
2023/01/20 00:08:42;;;;;;;57.97;34.28;;;;;;;0.11;100.00;100873.41;1043529;28;21109;-78
2023/01/20 00:09:15;;;;;;;55.50;33.08;;;;;;;0.15;100.00;100873.94;1043458;28;20304;-78
2023/01/20 00:09:47;;;;;;;54.78;33.40;;;;;;;0.15;100.00;100872.16;1039751;28;20303;-77
2023/01/20 00:10:18;;;;;;;57.00;32.85;;;;;;;0.21;100.00;100876.78;1046303;28;20295;-77
2023/01/20 00:10:50;;;;;;;44.03;31.27;;;;;;;0.19;100.00;100876.13;1039684;28;20347;-77
2023/01/20 00:11:22;;;;;;;53.90;33.38;;;;;;;0.21;100.00;100874.16;1039201;28;20303;-77
2023/01/20 00:11:54;;;;;;;53.15;34.30;;;;;;;0.18;100.00;100869.22;1035659;28;20308;-78
2023/01/20 00:12:25;;;;;;;58.88;32.80;;;;;;;0.16;100.00;100875.59;1039619;28;20304;-77
2023/01/20 00:12:57;;;;;;;51.92;32.83;;;;;;;0.14;100.00;100878.34;1043360;28;20318;-77
2023/01/20 00:13:32;;;;;;;55.20;33.15;;;;;;;0.17;100.00;100877.22;1043905;28;20287;-78
2023/01/20 00:14:04;;;;;;;51.00;32.72;;;;;;;0.19;100.00;100878.72;1042030;28;20302;-78
2023/01/20 00:14:36;;;;;;;49.38;33.38;;;;;;;0.18;100.00;100874.47;1043491;28;20304;-78
2023/01/20 00:15:09;;;;;;;51.38;32.35;;;;;;;0.10;100.00;100882.25;1035067;28;20862;-77
2023/01/20 00:15:40;;;;;;;55.40;33.47;;;;;;;0.18;100.00;100887.56;1035658;28;20316;-78
2023/01/20 00:16:12;;;;;;;51.60;32.38;;;;;;;0.18;100.00;100874.47;1031714;28;20301;-78
2023/01/20 00:16:44;;;;;;;49.20;33.30;;;;;;;0.13;100.00;100876.72;1032558;28;20819;-77
2023/01/20 00:17:16;;;;;;;54.72;33.58;;;;;;;0.13;100.00;100876.72;1039074;28;20630;-78
2023/01/20 00:17:47;;;;;;;49.47;33.78;;;;;;;0.14;100.00;100873.13;1036107;28;20292;-78
2023/01/20 00:18:19;;;;;;;52.47;33.55;;;;;;;0.13;100.00;100875.88;1042928;28;20307;-78
2023/01/20 00:18:51;;;;;;;55.45;34.78;;;;;;;0.23;100.00;100882.69;1043440;28;20295;-78
2023/01/20 00:19:22;;;;;;;57.13;33.47;;;;;;;0.30;100.00;100882.94;1033606;28;20300;-78
2023/01/20 00:19:54;;;;;;;54.90;32.28;;;;;;;0.24;100.00;100873.03;1040012;28;20308;-78
2023/01/20 00:20:25;;;;;;;55.78;33.50;;;;;;;0.23;100.00;100872.22;1043655;28;20295;-78
2023/01/20 00:21:05;;;;;;;53.55;33.10;;;;;;;0.25;100.00;100875.50;1042659;28;20669;-78
2023/01/20 00:21:36;;;;;;;46.63;31.70;;;;;;;0.26;100.00;100877.16;1041611;28;20303;-78
2023/01/20 00:22:08;;;;;;;45.67;30.15;;;;;;;0.21;100.00;100878.59;1044769;28;20302;-78
2023/01/20 00:22:41;;;;;;;49.10;31.40;;;;;;;0.26;100.00;100877.16;1047427;28;20294;-78
2023/01/20 00:23:12;;;;;;;51.00;31.80;;;;;;;0.24;100.00;100879.09;1043810;28;20287;-78
2023/01/20 00:23:45;;;;;;;46.83;30.50;;;;;;;0.24;100.00;100880.91;1038137;28;20662;-78
2023/01/20 00:24:17;;;;;;;46.75;29.60;;;;;;;0.27;100.00;100873.59;1030737;28;20310;-78
2023/01/20 00:24:49;;;;;;;50.25;30.67;;;;;;;0.14;100.00;100870.50;1031761;28;20305;-78
2023/01/20 00:25:20;;;;;;;38.13;27.38;;;;;;;0.14;100.00;100874.91;1035867;28;20821;-78
2023/01/20 00:25:52;;;;;;;43.40;30.48;;;;;;;0.15;100.00;100880.00;1039674;28;20312;-79
2023/01/20 00:26:24;;;;;;;40.00;29.10;;;;;;;0.12;100.00;100875.06;1039909;28;20307;-79
2023/01/20 00:26:55;;;;;;;38.70;28.20;;;;;;;0.15;100.00;100877.38;1047538;28;20345;-78
2023/01/20 00:27:27;;;;;;;42.47;27.65;;;;;;;0.22;100.00;100881.06;1047402;28;20314;-78
2023/01/20 00:27:59;;;;;;;45.15;29.63;;;;;;;0.27;100.00;100884.06;1044714;28;20295;-78
2023/01/20 00:28:30;;;;;;;42.95;28.38;;;;;;;0.16;100.00;100881.66;1046499;28;20302;-79
2023/01/20 00:29:02;;;;;;;45.53;27.83;;;;;;;0.16;100.00;100876.41;1039250;28;20395;-78
2023/01/20 00:29:33;;;;;;;43.38;26.30;;;;;;;0.14;100.00;100883.59;1037438;28;20304;-78
2023/01/20 00:30:06;;;;;;;38.35;26.30;;;;;;;0.12;100.00;100872.44;1039782;28;20908;-78
2023/01/20 00:30:37;;;;;;;40.38;27.13;;;;;;;0.08;100.00;100886.81;1036064;28;20307;-78
2023/01/20 00:31:14;;;;;;;41.00;27.08;;;;;;;0.19;100.00;100886.59;1035794;28;20669;-78
2023/01/20 00:31:46;;;;;;;41.47;26.60;;;;;;;0.22;100.00;100880.22;1035545;28;20379;-78
2023/01/20 00:32:17;;;;;;;39.65;26.90;;;;;;;0.21;100.00;100884.66;1036743;28;20305;-78
2023/01/20 00:32:49;;;;;;;33.83;25.67;;;;;;;0.22;100.00;100886.28;1040123;28;20395;-79
2023/01/20 00:33:21;;;;;;;39.80;26.15;;;;;;;0.21;100.00;100882.03;1040128;28;20300;-78
2023/01/20 00:33:54;;;;;;;40.30;27.30;;;;;;;0.23;100.00;100884.50;1043244;28;20299;-78
2023/01/20 00:34:26;;;;;;;37.83;25.67;;;;;;;0.25;100.00;100880.75;1042113;28;20295;-78
2023/01/20 00:34:58;;;;;;;45.78;27.98;;;;;;;0.24;100.00;100883.53;1035928;28;20296;-78
2023/01/20 00:35:29;;;;;;;36.25;23.65;;;;;;;0.20;100.00;100875.13;1035688;28;20335;-78
2023/01/20 00:36:01;;;;;;;39.42;26.45;;;;;;;0.24;100.00;100884.34;1035888;28;20324;-78
2023/01/20 00:36:32;;;;;;;37.72;26.35;;;;;;;0.30;100.00;100883.78;1043622;28;20665;-78
2023/01/20 00:37:04;;;;;;;43.10;26.45;;;;;;;0.17;100.00;100877.22;1039575;28;20366;-78
2023/01/20 00:37:36;;;;;;;37.20;25.70;;;;;;;0.22;100.00;100886.28;1043801;28;20389;-78
2023/01/20 00:38:08;;;;;;;41.05;26.45;;;;;;;0.15;100.00;100890.47;1043779;28;20677;-78
2023/01/20 00:38:40;;;;;;;44.25;26.38;;;;;;;0.16;100.00;100892.13;1042371;28;20728;-78
2023/01/20 00:39:12;;;;;;;34.88;25.08;;;;;;;0.16;100.00;100886.88;1039308;28;20820;-79
2023/01/20 00:39:43;;;;;;;37.08;26.02;;;;;;;0.20;100.00;100885.63;1036035;28;20308;-78
2023/01/20 00:40:15;;;;;;;32.83;23.52;;;;;;;0.27;100.00;100888.47;1032696;28;20340;-78
2023/01/20 00:40:52;;;;;;;34.10;24.25;;;;;;;0.18;100.00;100884.13;1035649;28;20438;-78
2023/01/20 00:41:24;;;;;;;37.45;25.05;;;;;;;0.19;100.00;100891.00;1035878;28;20299;-78
2023/01/20 00:41:55;;;;;;;36.58;26.08;;;;;;;0.12;100.00;100884.72;1038570;28;20361;-78
2023/01/20 00:42:27;;;;;;;33.85;23.60;;;;;;;0.21;100.00;100884.66;1037917;28;20299;-78
2023/01/20 00:42:58;;;;;;;36.95;25.17;;;;;;;0.07;100.00;100884.34;1039758;28;20300;-78
2023/01/20 00:43:31;;;;;;;41.90;23.52;;;;;;;0.05;100.00;100884.50;1046124;28;20811;-77
2023/01/20 00:44:03;;;;;;;30.55;22.92;;;;;;;0.05;100.00;100889.72;1035345;28;20670;-78
2023/01/20 00:44:34;;;;;;;35.22;22.50;;;;;;;0.04;100.00;100888.06;1035537;28;20293;-78
2023/01/20 00:45:06;;;;;;;33.28;22.88;;;;;;;0.06;100.00;100893.16;1039356;28;20300;-77
2023/01/20 00:45:39;;;;;;;33.85;23.65;;;;;;;0.09;100.00;100888.44;1035913;28;20293;-78
2023/01/20 00:46:12;;;;;;;36.70;24.88;;;;;;;0.06;100.00;100891.38;1039047;28;20607;-78
2023/01/20 00:46:43;;;;;;;32.90;23.13;;;;;;;0.08;100.00;100888.59;1035023;28;20979;-77
2023/01/20 00:47:15;;;;;;;34.58;24.65;;;;;;;0.04;100.00;100887.25;1031852;28;20309;-78
2023/01/20 00:47:47;;;;;;;37.03;24.58;;;;;;;-0.03;100.00;100892.22;1037617;28;20331;-78
2023/01/20 00:48:18;;;;;;;33.22;23.10;;;;;;;0.02;100.00;100892.63;1031085;28;20313;-78
2023/01/20 00:48:50;;;;;;;34.90;23.20;;;;;;;0.04;100.00;100890.69;1027737;28;20396;-79
2023/01/20 00:49:22;;;;;;;32.67;23.42;;;;;;;0.02;100.00;100895.25;1030454;28;20313;-78
2023/01/20 00:49:54;;;;;;;36.17;25.45;;;;;;;0.05;100.00;100892.34;1031446;28;20297;-78
2023/01/20 00:50:25;;;;;;;30.60;23.48;;;;;;;0.07;100.00;100889.56;1034042;28;20292;-78
2023/01/20 00:50:57;;;;;;;31.40;23.10;;;;;;;0.07;100.00;100893.03;1039235;28;21049;-78
2023/01/20 00:51:28;;;;;;;39.75;25.67;;;;;;;0.03;100.00;100896.91;1039321;28;20303;-78
2023/01/20 00:52:01;;;;;;;35.13;24.05;;;;;;;0.05;100.00;100899.38;1044207;28;20681;-77
2023/01/20 00:52:33;;;;;;;29.63;22.48;;;;;;;0.08;100.00;100894.66;1047440;28;20671;-78
2023/01/20 00:53:05;;;;;;;32.90;22.45;;;;;;;0.14;100.00;100901.09;1044109;28;20314;-78
2023/01/20 00:53:36;;;;;;;34.28;23.23;;;;;;;0.04;100.00;100897.72;1047791;28;20298;-78
2023/01/20 00:54:08;;;;;;;32.97;21.55;;;;;;;0.20;100.00;100897.88;1043004;28;20315;-78
2023/01/20 00:54:39;;;;;;;37.35;22.00;;;;;;;0.15;100.00;100900.97;1043734;28;20295;-78
2023/01/20 00:55:11;;;;;;;28.77;20.58;;;;;;;0.11;100.00;100894.38;1045010;28;20294;-78
2023/01/20 00:55:43;;;;;;;31.55;21.10;;;;;;;0.09;100.00;100893.69;1033244;28;20304;-78
2023/01/20 00:56:15;;;;;;;31.77;20.25;;;;;;;0.15;100.00;100900.13;1038885;28;20631;-78
2023/01/20 00:56:46;;;;;;;29.20;18.83;;;;;;;0.07;100.00;100898.25;1035260;28;20352;-78
2023/01/20 00:57:18;;;;;;;30.58;19.63;;;;;;;0.09;100.00;100896.31;1036390;28;20640;-78
2023/01/20 00:57:49;;;;;;;29.30;19.25;;;;;;;0.07;100.00;100898.25;1039763;28;20650;-78
2023/01/20 00:58:21;;;;;;;30.52;20.00;;;;;;;0.04;100.00;100901.16;1041833;28;20287;-77
2023/01/20 00:58:54;;;;;;;29.52;20.13;;;;;;;0.06;100.00;100896.59;1043441;28;20665;-77
2023/01/20 00:59:25;;;;;;;28.92;18.70;;;;;;;0.09;100.00;100905.97;1043369;28;20307;-77
2023/01/20 00:59:57;;;;;;;24.65;18.10;;;;;;;0.08;100.00;100897.28;1043561;28;20295;-77
2023/01/20 01:00:28;;;;;;;29.52;18.90;;;;;;;0.03;100.00;100901.31;1042781;28;20295;-77
2023/01/20 01:01:01;;;;;;;29.50;20.77;;;;;;;0.03;100.00;100901.31;1045288;28;20309;-78
2023/01/20 01:01:35;;;;;;;27.63;20.75;;;;;;;0.08;100.00;100902.53;1039361;28;20324;-78
2023/01/20 01:02:07;;;;;;;29.80;18.67;;;;;;;0.09;100.00;100901.53;1047622;28;20780;-77
2023/01/20 01:02:39;;;;;;;24.88;18.23;;;;;;;0.09;100.00;100901.53;1042976;28;20314;-77
2023/01/20 01:03:10;;;;;;;30.15;19.02;;;;;;;0.07;100.00;100907.91;1036446;28;20308;-77
2023/01/20 01:03:43;;;;;;;26.98;18.88;;;;;;;0.05;100.00;100897.59;1035370;28;20848;-78
2023/01/20 01:04:14;;;;;;;29.70;19.83;;;;;;;0.05;100.00;100899.38;1029219;28;20298;-78
2023/01/20 01:04:49;;;;;;;30.33;19.25;;;;;;;0.05;100.00;100910.66;1035557;28;20317;-78
2023/01/20 01:05:21;;;;;;;29.80;19.58;;;;;;;0.05;100.00;100904.63;1031926;28;20663;-78
2023/01/20 01:05:53;;;;;;;31.05;20.02;;;;;;;0.04;100.00;100911.66;1028309;28;20310;-78
2023/01/20 01:06:25;;;;;;;29.70;19.10;;;;;;;0.10;100.00;100912.84;1026801;28;20309;-77
2023/01/20 01:06:56;;;;;;;28.70;19.83;;;;;;;0.05;100.00;100909.84;1020447;28;20318;-78
2023/01/20 01:07:28;;;;;;;31.27;20.27;;;;;;;0.07;100.00;100915.75;1031882;28;20306;-78
2023/01/20 01:08:01;;;;;;;30.88;19.58;;;;;;;0.05;100.00;100913.28;1035416;28;20374;-78
2023/01/20 01:08:35;;;;;;;30.67;20.60;;;;;;;0.16;100.00;100907.00;1038106;28;20338;-78
2023/01/20 01:09:07;;;;;;;29.98;20.00;;;;;;;0.01;100.00;100919.78;1032266;28;20809;-78
2023/01/20 01:09:39;;;;;;;28.58;19.70;;;;;;;0.00;100.00;100923.38;1031189;28;20337;-78
2023/01/20 01:10:10;;;;;;;32.25;20.40;;;;;;;0.05;100.00;100918.53;1030788;28;20675;-78
2023/01/20 01:10:42;;;;;;;31.73;21.25;;;;;;;0.09;100.00;100917.25;1028132;28;20309;-78
2023/01/20 01:11:14;;;;;;;26.08;18.55;;;;;;;0.06;100.00;100922.78;1027151;28;20302;-77
2023/01/20 01:11:45;;;;;;;31.67;19.05;;;;;;;0.13;100.00;100916.00;1035055;28;20387;-78
2023/01/20 01:12:17;;;;;;;27.70;18.25;;;;;;;0.16;100.00;100920.94;1031883;28;20767;-78
2023/01/20 01:12:48;;;;;;;24.05;18.88;;;;;;;0.16;100.00;100918.31;1031878;28;20835;-78
2023/01/20 01:13:20;;;;;;;26.25;19.45;;;;;;;0.16;100.00;100923.56;1031569;28;20707;-78
2023/01/20 01:13:54;;;;;;;28.23;18.67;;;;;;;0.19;100.00;100922.44;1031365;28;20293;-77
2023/01/20 01:14:26;;;;;;;29.77;20.30;;;;;;;0.16;100.00;100927.97;1032036;28;20290;-78
2023/01/20 01:14:57;;;;;;;26.27;18.52;;;;;;;0.09;100.00;100922.50;1032093;28;20289;-78
2023/01/20 01:15:29;;;;;;;27.17;18.58;;;;;;;0.07;100.00;100927.06;1030677;28;20309;-78
2023/01/20 01:16:00;;;;;;;29.15;18.25;;;;;;;0.04;100.00;100932.59;1035634;28;20658;-77
2023/01/20 01:16:32;;;;;;;25.63;17.77;;;;;;;0.08;100.00;100926.09;1035118;28;20300;-78
2023/01/20 01:17:04;;;;;;;27.30;17.92;;;;;;;0.04;100.00;100923.91;1035984;28;20426;-78
2023/01/20 01:17:35;;;;;;;26.67;18.10;;;;;;;0.08;100.00;100931.31;1042913;28;20294;-78
2023/01/20 01:18:07;;;;;;;26.42;17.73;;;;;;;0.05;100.00;100929.00;1033688;28;20347;-78
2023/01/20 01:18:39;;;;;;;25.40;16.38;;;;;;;0.06;100.00;100933.28;1034974;28;20297;-79
2023/01/20 01:19:11;;;;;;;25.40;17.42;;;;;;;0.09;100.00;100934.78;1031077;28;21051;-78
2023/01/20 01:19:42;;;;;;;24.45;16.80;;;;;;;0.08;100.00;100925.25;1031966;28;20297;-77
2023/01/20 01:20:14;;;;;;;25.15;16.65;;;;;;;0.08;100.00;100935.75;1034589;28;20293;-77
2023/01/20 01:20:46;;;;;;;22.35;15.38;;;;;;;0.08;100.00;100941.81;1037785;28;20300;-77
2023/01/20 01:21:17;;;;;;;23.08;15.07;;;;;;;0.00;100.00;100939.09;1037408;28;20296;-77
2023/01/20 01:21:49;;;;;;;18.63;14.57;;;;;;;0.01;100.00;100935.50;1030686;28;20305;-77
2023/01/20 01:22:20;;;;;;;19.38;15.30;;;;;;;0.08;100.00;100938.34;1026958;28;20302;-77
2023/01/20 01:22:52;;;;;;;20.15;15.32;;;;;;;0.07;100.00;100937.53;1035791;28;20311;-79
2023/01/20 01:23:24;;;;;;;21.13;15.27;;;;;;;0.03;100.00;100937.97;1039343;28;20358;-79
2023/01/20 01:23:55;;;;;;;26.13;15.30;;;;;;;-0.01;100.00;100934.78;1039508;28;20335;-77
2023/01/20 01:24:27;;;;;;;20.38;14.73;;;;;;;-0.02;100.00;100941.00;1043048;28;20299;-79
2023/01/20 01:24:58;;;;;;;18.35;13.85;;;;;;;0.03;100.00;100943.22;1031100;28;20309;-79
2023/01/20 01:25:30;;;;;;;18.85;14.35;;;;;;;0.04;100.00;100945.69;1026979;28;20305;-79
2023/01/20 01:26:02;;;;;;;19.55;14.13;;;;;;;0.02;100.00;100945.00;1027216;28;20673;-79
2023/01/20 01:26:33;;;;;;;17.98;13.55;;;;;;;0.04;100.00;100948.31;1027650;28;20305;-79
2023/01/20 01:27:06;;;;;;;21.45;14.05;;;;;;;0.07;100.00;100940.16;1034234;28;20297;-79
2023/01/20 01:27:38;;;;;;;18.27;12.90;;;;;;;0.09;100.00;100943.44;1031036;28;20304;-79
2023/01/20 01:28:10;;;;;;;19.42;13.27;;;;;;;0.05;100.00;100952.56;1031014;28;20298;-79
2023/01/20 01:28:42;;;;;;;20.10;13.82;;;;;;;0.09;100.00;100951.31;1027596;28;20298;-79
2023/01/20 01:29:13;;;;;;;20.08;12.88;;;;;;;0.05;100.00;100946.50;1028665;28;20835;-79
2023/01/20 01:29:45;;;;;;;16.67;12.35;;;;;;;0.12;100.00;100953.63;1029528;28;20313;-79
2023/01/20 01:30:16;;;;;;;17.50;13.30;;;;;;;0.10;100.00;100952.13;1022308;28;20400;-79
2023/01/20 01:30:48;;;;;;;18.83;12.75;;;;;;;0.16;100.00;100954.97;1027500;28;20437;-79
2023/01/20 01:31:22;;;;;;;18.60;13.43;;;;;;;0.16;100.00;100944.50;1034832;28;20309;-79
2023/01/20 01:31:54;;;;;;;19.65;13.35;;;;;;;0.10;100.00;100950.34;1036039;28;20300;-78
2023/01/20 01:32:26;;;;;;;19.60;13.40;;;;;;;0.07;100.00;100955.88;1038750;28;20292;-78
2023/01/20 01:32:58;;;;;;;15.27;12.35;;;;;;;0.15;100.00;100958.56;1032565;28;20632;-78
2023/01/20 01:33:30;;;;;;;18.67;13.65;;;;;;;0.18;100.00;100954.84;1028574;28;20314;-78
2023/01/20 01:34:01;;;;;;;17.15;12.93;;;;;;;0.09;100.00;100961.78;1031626;28;20297;-78
2023/01/20 01:34:33;;;;;;;17.02;13.32;;;;;;;0.15;100.00;100963.00;1031602;28;20447;-78
2023/01/20 01:35:05;;;;;;;19.52;13.60;;;;;;;0.14;100.00;100963.97;1030856;28;20325;-78
2023/01/20 01:35:37;;;;;;;18.48;13.20;;;;;;;0.10;100.00;100960.81;1025393;28;20301;-78
2023/01/20 01:36:12;;;;;;;19.70;13.80;;;;;;;0.08;100.00;100962.75;1019015;29;20299;-78
2023/01/20 01:36:44;;;;;;;19.02;13.15;;;;;;;0.10;100.00;100963.44;1019828;29;20450;-78
2023/01/20 01:37:16;;;;;;;19.25;14.05;;;;;;;0.09;100.00;100961.78;1024960;28;20813;-78
2023/01/20 01:37:48;;;;;;;16.02;14.05;;;;;;;0.10;100.00;100968.66;1026027;28;20298;-78
2023/01/20 01:38:20;;;;;;;18.42;14.35;;;;;;;0.12;100.00;100968.53;1027911;28;20293;-78
2023/01/20 01:38:51;;;;;;;17.30;13.65;;;;;;;0.09;100.00;100969.63;1030584;28;20344;-79
2023/01/20 01:39:29;;;;;;;18.45;12.95;;;;;;;0.11;100.00;100957.22;1026856;28;20835;-78
2023/01/20 01:40:01;;;;;;;19.30;12.90;;;;;;;0.08;100.00;100961.94;1028492;28;20697;-78
2023/01/20 01:40:33;;;;;;;18.40;13.77;;;;;;;0.13;100.00;100957.06;1034133;28;20296;-79
2023/01/20 01:41:05;;;;;;;20.08;12.98;;;;;;;0.17;100.00;100961.88;1040348;28;20292;-78
2023/01/20 01:41:36;;;;;;;19.90;13.20;;;;;;;0.25;100.00;100959.34;1042951;28;20295;-78
2023/01/20 01:42:22;;;;;;;21.38;13.73;;;;;;;0.25;100.00;100959.34;1039443;28;20303;-78
2023/01/20 01:42:54;;;;;;;18.40;12.05;;;;;;;0.20;100.00;100961.56;1030774;28;20313;-78
2023/01/20 01:43:29;;;;;;;19.63;13.55;;;;;;;0.20;100.00;100955.50;1031222;28;20312;-78
2023/01/20 01:44:08;;;;;;;19.00;13.35;;;;;;;0.15;100.00;100966.44;1028822;28;20392;-78
2023/01/20 01:45:10;;;;;;;19.85;13.20;;;;;;;0.14;100.00;100964.78;1029560;28;20304;-78
2023/01/20 01:45:42;;;;;;;20.33;13.45;;;;;;;0.20;100.00;100966.81;1028746;28;20385;-77
2023/01/20 01:46:14;;;;;;;20.25;13.75;;;;;;;0.19;100.00;100965.16;1030228;28;20334;-77
2023/01/20 01:46:46;;;;;;;18.40;13.63;;;;;;;0.15;100.00;100963.00;1035636;28;20316;-77
2023/01/20 01:47:17;;;;;;;20.10;13.40;;;;;;;0.08;100.00;100961.94;1031110;28;20290;-77
2023/01/20 01:48:01;;;;;;;18.67;13.48;;;;;;;0.14;100.00;100966.56;1035622;28;20300;-77
2023/01/20 01:48:36;;;;;;;18.13;13.73;;;;;;;0.15;100.00;100973.47;1035358;28;20358;-78
2023/01/20 01:49:20;;;;;;;19.58;14.13;;;;;;;0.13;100.00;100962.31;1033729;28;20300;-77
2023/01/20 01:49:51;;;;;;;19.15;13.13;;;;;;;0.10;100.00;100960.81;1038521;28;20322;-78
2023/01/20 01:50:27;;;;;;;20.30;13.45;;;;;;;0.05;100.00;100965.66;1042095;28;20292;-77
2023/01/20 01:51:02;;;;;;;22.00;14.20;;;;;;;0.07;100.00;100970.75;1041765;28;20296;-77
2023/01/20 01:51:41;;;;;;;22.95;15.00;;;;;;;0.01;100.00;100966.94;1037458;28;20307;-78
2023/01/20 01:52:12;;;;;;;18.05;13.82;;;;;;;0.13;100.00;100976.22;1034970;28;20379;-78
2023/01/20 01:52:47;;;;;;;21.80;15.15;;;;;;;0.16;100.00;100968.09;1038997;28;20300;-78
2023/01/20 01:53:20;;;;;;;22.45;14.45;;;;;;;0.18;100.00;100968.75;1034264;28;20296;-77
2023/01/20 01:53:59;;;;;;;19.42;13.80;;;;;;;0.13;100.00;100968.38;1032051;28;20679;-78
2023/01/20 01:54:40;;;;;;;21.38;13.75;;;;;;;0.13;100.00;100971.00;1027228;28;20313;-78
2023/01/20 01:55:12;;;;;;;;;;;;;;;0.05;100.00;100976.13;1027655;28;20308;-77
2023/01/20 01:55:49;;;;;;;19.40;14.13;;;;;;;0.03;100.00;100972.84;1027323;28;20012;-77
2023/01/20 01:56:25;;;;;;;20.27;13.55;;;;;;;0.12;100.00;100968.53;1036201;28;20389;-77
2023/01/20 01:56:56;;;;;;;18.17;13.68;;;;;;;0.12;100.00;100979.81;1034880;28;20705;-77
2023/01/20 01:57:30;;;;;;;18.77;13.68;;;;;;;0.09;100.00;100974.06;1031657;28;20409;-78
2023/01/20 01:58:05;;;;;;;18.23;13.82;;;;;;;0.03;100.00;100975.47;1024309;28;20836;-77
2023/01/20 01:58:40;;;;;;;20.77;14.30;;;;;;;0.06;100.00;100979.59;1032354;28;20320;-77
2023/01/20 01:59:12;;;;;;;22.20;14.13;;;;;;;0.09;100.00;100977.50;1027129;28;20294;-78
2023/01/20 01:59:44;;;;;;;19.42;14.02;;;;;;;0.08;100.00;100973.22;1027818;28;20757;-78
2023/01/20 02:00:16;;;;;;;22.00;14.82;;;;;;;0.13;100.00;100976.22;1022603;28;20330;-78
2023/01/20 02:00:48;;;;;;;21.38;13.93;;;;;;;0.15;100.00;100976.09;1027271;28;20305;-78
2023/01/20 02:01:20;;;;;;;20.67;14.85;;;;;;;0.13;100.00;100975.41;1023238;28;20796;-77
2023/01/20 02:01:52;;;;;;;20.10;16.00;;;;;;;0.11;100.00;100978.16;1026678;28;20367;-77
2023/01/20 02:02:24;;;;;;;18.73;14.55;;;;;;;0.07;100.00;100984.69;1034501;28;20300;-77
2023/01/20 02:02:56;;;;;;;20.98;14.32;;;;;;;0.08;100.00;100978.47;1026763;28;20796;-77
2023/01/20 02:03:32;;;;;;;24.05;16.83;;;;;;;0.13;100.00;100983.25;1023324;28;20310;-78
2023/01/20 02:04:09;;;;;;;23.75;15.30;;;;;;;0.11;100.00;100985.19;1031809;28;20304;-77
2023/01/20 02:04:41;;;;;;;22.60;15.55;;;;;;;0.13;100.00;100980.66;1030877;28;21045;-77
2023/01/20 02:05:14;;;;;;;20.67;15.25;;;;;;;0.16;100.00;100986.41;1033392;28;20343;-78
2023/01/20 02:05:48;;;;;;;25.20;16.90;;;;;;;0.12;100.00;100995.53;1028229;28;20305;-77
2023/01/20 02:06:22;;;;;;;25.55;17.17;;;;;;;0.11;100.00;100983.41;1027583;28;20302;-79
2023/01/20 02:06:58;;;;;;;22.42;15.15;;;;;;;0.10;100.00;100984.38;1034258;28;20305;-78
2023/01/20 02:07:31;;;;;;;22.67;14.57;;;;;;;0.11;100.00;100983.41;1036926;28;20348;-79
2023/01/20 02:08:03;;;;;;;22.90;15.77;;;;;;;0.11;100.00;100986.03;1034170;28;20882;-78
2023/01/20 02:08:36;;;;;;;22.55;17.08;;;;;;;0.05;100.00;100984.00;1036805;28;20296;-79
2023/01/20 02:09:08;;;;;;;24.73;15.77;;;;;;;0.06;100.00;100985.63;1038816;28;20303;-77
2023/01/20 02:09:39;;;;;;;25.00;16.63;;;;;;;0.05;100.00;100972.69;1039485;28;20299;-77
2023/01/20 02:10:12;;;;;;;26.85;17.08;;;;;;;0.11;100.00;100978.16;1033708;28;20308;-77
2023/01/20 02:10:44;;;;;;;21.50;16.10;;;;;;;0.20;100.00;100977.28;1030493;28;20305;-77
2023/01/20 02:11:15;;;;;;;24.35;17.40;;;;;;;0.20;100.00;100977.28;1028311;28;20302;-78
2023/01/20 02:11:51;;;;;;;21.55;16.08;;;;;;;0.20;100.00;100977.28;1035167;28;20308;-78
2023/01/20 02:12:22;;;;;;;21.70;15.73;;;;;;;0.15;100.00;100983.94;1036004;28;20305;-79
2023/01/20 02:12:54;;;;;;;24.00;16.05;;;;;;;0.14;100.00;100983.13;1037472;28;20796;-78
2023/01/20 02:13:26;;;;;;;22.20;15.55;;;;;;;0.16;100.00;100981.19;1040240;28;20813;-78
2023/01/20 02:13:58;;;;;;;25.77;17.35;;;;;;;0.17;100.00;100984.63;1039740;28;20292;-78
2023/01/20 02:14:33;;;;;;;22.55;16.00;;;;;;;0.14;100.00;100977.88;1043460;28;20310;-79
2023/01/20 02:15:06;;;;;;;21.45;15.43;;;;;;;0.09;100.00;100980.13;1033174;28;20312;-79
2023/01/20 02:16:11;;;;;;;21.02;16.25;;;;;;;0.11;100.00;100983.41;1031303;28;20297;-78
2023/01/20 02:16:48;;;;;;;20.80;15.02;;;;;;;0.14;100.00;100988.34;1034870;28;20396;-79
2023/01/20 02:17:35;;;;;;;24.52;15.98;;;;;;;0.14;100.00;100988.34;1041593;28;20304;-79
2023/01/20 02:18:15;;;;;;;21.10;14.43;;;;;;;0.13;100.00;100981.47;1039401;28;20296;-78
2023/01/20 02:18:54;;;;;;;25.13;14.88;;;;;;;0.13;100.00;100981.47;1038495;28;20300;-79
2023/01/20 02:19:34;;;;;;;24.25;15.52;;;;;;;0.13;100.00;100981.47;1031242;28;20039;-79
2023/01/20 02:20:27;;;;;;;24.15;16.30;;;;;;;0.13;100.00;100983.25;1043709;28;20689;-79
2023/01/20 02:21:32;;;;;;;21.23;14.30;;;;;;;0.10;100.00;100981.75;1039939;28;20076;-79
2023/01/20 02:22:06;;;;;;;20.17;14.93;;;;;;;0.07;100.00;100976.81;1044157;28;20294;-79
2023/01/20 02:22:45;;;;;;;22.90;13.38;;;;;;;0.09;100.00;100985.34;1046363;28;20346;-79
2023/01/20 02:23:32;;;;;;;20.98;11.63;;;;;;;0.09;100.00;100980.13;1048496;28;20286;-79
2023/01/20 02:24:12;;;;;;;25.00;13.43;;;;;;;0.14;100.00;100987.53;1048366;28;20301;-79
2023/01/20 02:25:03;;;;;;;;;;;;;;;0.18;100.00;100984.47;1044924;28;20303;-79
2023/01/20 02:25:37;;;;;;;23.73;13.13;;;;;;;-0.04;100.00;100984.84;1042779;28;19939;-79
2023/01/20 02:26:12;;;;;;;21.38;12.05;;;;;;;0.07;100.00;100978.59;1039946;28;20295;-77
2023/01/20 02:26:46;;;;;;;23.67;13.40;;;;;;;0.11;100.00;100983.41;1039977;28;20291;-77
2023/01/20 02:27:37;;;;;;;24.65;12.68;;;;;;;0.07;100.00;100987.28;1035497;28;20308;-78
2023/01/20 02:28:41;;;;;;;21.52;13.00;;;;;;;0.16;100.00;100985.59;1039018;28;20558;-77
2023/01/20 02:29:23;;;;;;;21.45;12.63;;;;;;;0.13;100.00;100986.72;1037373;28;20336;-77
2023/01/20 02:30:04;;;;;;;22.45;12.10;;;;;;;0.23;100.00;100982.22;1033924;28;20430;-77
2023/01/20 02:31:20;;;;;;;22.50;13.35;;;;;;;0.08;100.00;100988.94;1044055;28;20302;-77
2023/01/20 02:32:10;;;;;;;17.88;10.73;;;;;;;0.15;100.00;100984.75;1047525;28;20066;-77
2023/01/20 02:32:47;;;;;;;21.35;12.60;;;;;;;0.12;100.00;100995.53;1042111;28;20738;-79
2023/01/20 02:33:24;;;;;;;23.38;13.63;;;;;;;0.10;100.00;100992.25;1043970;28;20342;-77